createdAt,value
2022-10-13T00:01:58.125Z,60.10
2022-10-13T00:05:00.827Z,56.90
2022-10-13T00:08:03.276Z,58.67
2022-10-13T00:11:18.151Z,55.38
2022-10-13T00:14:20.764Z,58.17
2022-10-13T00:17:24.260Z,58.00
2022-10-13T00:20:26.784Z,60.30
2022-10-13T00:23:29.565Z,54.57
2022-10-13T00:26:32.122Z,59.55
2022-10-13T00:29:35.806Z,55.97
2022-10-13T00:32:38.287Z,54.88
2022-10-13T00:35:46.328Z,57.15
2022-10-13T00:38:50.607Z,53.27
2022-10-13T00:41:54.529Z,53.90
2022-10-13T00:45:01.202Z,59.60
2022-10-13T00:48:04.261Z,50.72
2022-10-13T00:51:07.238Z,48.45
2022-10-13T00:54:11.808Z,51.00
2022-10-13T00:57:14.389Z,49.08
2022-10-13T01:00:17.244Z,54.25
2022-10-13T01:03:20.571Z,50.72
2022-10-13T01:06:23.971Z,51.25
2022-10-13T01:09:26.639Z,52.73
2022-10-13T01:12:41.562Z,48.80
2022-10-13T01:16:28.679Z,50.65
2022-10-13T01:20:03.859Z,46.67
2022-10-13T01:23:54.971Z,48.38
2022-10-13T01:27:09.966Z,50.60
2022-10-13T01:30:16.733Z,51.97
2022-10-13T01:33:44.092Z,48.90
2022-10-13T01:37:03.774Z,47.47
2022-10-13T01:40:21.630Z,49.08
2022-10-13T01:43:27.483Z,48.93
2022-10-13T01:46:35.513Z,44.95
2022-10-13T01:49:38.776Z,50.12
2022-10-13T01:52:42.454Z,41.80
2022-10-13T01:55:55.677Z,44.80
2022-10-13T01:59:00.347Z,43.17
2022-10-13T02:02:19.649Z,44.75
2022-10-13T02:05:49.075Z,36.45
2022-10-13T02:09:03.382Z,40.55
2022-10-13T02:12:10.109Z,36.13
2022-10-13T02:15:18.317Z,37.53
2022-10-13T02:18:28.233Z,41.45
2022-10-13T02:21:30.840Z,41.70
2022-10-13T02:24:36.019Z,36.83
2022-10-13T02:27:38.495Z,35.55
2022-10-13T02:30:41.457Z,32.70
2022-10-13T02:33:44.013Z,34.53
2022-10-13T02:36:46.864Z,36.92
2022-10-13T02:39:49.417Z,35.22
2022-10-13T02:42:54.577Z,36.03
2022-10-13T02:45:56.997Z,30.77
2022-10-13T02:48:59.729Z,33.15
2022-10-13T02:52:04.470Z,30.08
2022-10-13T02:55:07.551Z,30.88
2022-10-13T02:58:10.006Z,38.78
2022-10-13T03:01:14.895Z,37.40
2022-10-13T03:04:17.355Z,35.47
2022-10-13T03:07:20.182Z,45.33
2022-10-13T03:10:22.900Z,35.78
2022-10-13T03:13:26.637Z,35.20
2022-10-13T03:16:29.257Z,35.27
2022-10-13T03:19:32.061Z,36.60
2022-10-13T03:22:34.530Z,36.08
2022-10-13T03:25:41.734Z,28.95
2022-10-13T03:28:44.256Z,33.30
2022-10-13T03:31:47.040Z,32.70
2022-10-13T03:34:50.585Z,36.92
2022-10-13T03:37:54.197Z,32.40
2022-10-13T03:40:58.057Z,33.88
2022-10-13T03:44:02.391Z,30.50
2022-10-13T03:47:05.543Z,34.23
2022-10-13T03:50:08.836Z,28.00
2022-10-13T03:53:11.779Z,34.85
2022-10-13T03:56:18.633Z,30.23
2022-10-13T03:59:25.148Z,35.30
2022-10-13T04:02:27.881Z,31.93
2022-10-13T04:05:30.948Z,30.83
2022-10-13T04:08:34.056Z,36.00
2022-10-13T04:11:36.895Z,31.73
2022-10-13T04:14:39.375Z,37.95
2022-10-13T04:17:43.864Z,31.67
2022-10-13T04:20:46.321Z,34.75
2022-10-13T04:23:49.145Z,35.25
2022-10-13T04:26:51.686Z,34.35
2022-10-13T04:29:54.380Z,30.52
2022-10-13T04:32:56.859Z,32.83
2022-10-13T04:35:59.664Z,35.42
2022-10-13T04:39:02.161Z,33.35
2022-10-13T04:42:05.170Z,35.70
2022-10-13T04:45:08.408Z,34.97
2022-10-13T04:48:11.926Z,30.57
2022-10-13T04:51:16.868Z,32.90
2022-10-13T04:54:19.595Z,34.30
2022-10-13T04:57:22.148Z,30.42
2022-10-13T05:00:24.938Z,35.83
2022-10-13T05:03:27.584Z,35.13
2022-10-13T05:06:33.557Z,39.28
2022-10-13T05:09:36.053Z,36.78
2022-10-13T05:12:43.053Z,34.05
2022-10-13T05:15:45.480Z,35.63
2022-10-13T05:18:50.697Z,34.27
2022-10-13T05:21:53.287Z,39.80
2022-10-13T05:24:56.163Z,35.33
2022-10-13T05:27:58.742Z,36.35
2022-10-13T05:31:15.378Z,35.05
2022-10-13T05:34:18.040Z,34.37
2022-10-13T05:37:22.655Z,32.75
2022-10-13T05:40:25.923Z,35.05
2022-10-13T05:43:32.509Z,32.47
2022-10-13T05:46:35.115Z,30.45
2022-10-13T05:49:39.932Z,31.43
2022-10-13T05:52:43.588Z,34.13
2022-10-13T05:55:46.528Z,32.00
2022-10-13T05:58:53.477Z,38.42
2022-10-13T06:01:56.449Z,29.80
2022-10-13T06:05:02.908Z,34.43
2022-10-13T06:08:05.460Z,35.38
2022-10-13T06:11:09.968Z,32.80
2022-10-13T06:14:13.457Z,35.53
2022-10-13T06:17:16.352Z,33.63
2022-10-13T06:20:20.555Z,31.67
2022-10-13T06:23:24.199Z,37.40
2022-10-13T06:26:26.684Z,42.20
2022-10-13T06:29:29.438Z,30.92
2022-10-13T06:32:33.094Z,35.65
2022-10-13T06:35:36.534Z,31.17
2022-10-13T06:38:39.164Z,30.05
2022-10-13T06:41:41.993Z,30.73
2022-10-13T06:44:44.505Z,28.80
2022-10-13T06:47:47.289Z,25.02
2022-10-13T06:50:49.797Z,29.67
2022-10-13T06:53:52.528Z,31.52
2022-10-13T06:56:57.621Z,26.75
2022-10-13T07:00:00.699Z,30.20
2022-10-13T07:03:03.892Z,25.98
2022-10-13T07:06:07.551Z,23.93
2022-10-13T07:09:10.446Z,28.02
2022-10-13T07:12:14.286Z,21.95
2022-10-13T07:15:16.857Z,27.15
2022-10-13T07:18:20.891Z,28.12
2022-10-13T07:21:23.391Z,25.00
2022-10-13T07:24:26.193Z,24.85
2022-10-13T07:27:28.829Z,26.33
2022-10-13T07:30:31.733Z,23.10
2022-10-13T07:33:34.337Z,26.75
2022-10-13T07:36:40.647Z,25.27
2022-10-13T07:39:43.238Z,25.95
2022-10-13T07:42:46.067Z,26.80
2022-10-13T07:45:48.716Z,25.58
2022-10-13T07:48:55.929Z,21.55
2022-10-13T07:51:58.437Z,25.40
2022-10-13T07:55:01.351Z,26.58
2022-10-13T07:58:04.403Z,26.40
2022-10-13T08:01:09.470Z,25.92
2022-10-13T08:04:14.210Z,24.00
2022-10-13T08:07:17.882Z,24.07
2022-10-13T08:10:22.312Z,23.58
2022-10-13T08:13:25.138Z,26.27
2022-10-13T08:16:29.314Z,25.08
2022-10-13T08:19:32.472Z,25.40
2022-10-13T08:22:35.540Z,23.63
2022-10-13T08:25:39.185Z,23.50
2022-10-13T08:28:48.634Z,23.90
2022-10-13T08:32:00.116Z,20.92
2022-10-13T08:35:04.278Z,20.45
2022-10-13T08:38:07.682Z,22.87
2022-10-13T08:41:24.529Z,22.87
2022-10-13T08:48:06.212Z,23.92
2022-10-13T08:51:08.881Z,22.80
2022-10-13T08:54:15.619Z,26.83
2022-10-13T08:57:18.791Z,22.70
2022-10-13T09:00:22.822Z,23.42
2022-10-13T09:03:29.021Z,21.10
2022-10-13T09:06:44.217Z,21.73
2022-10-13T09:09:51.941Z,22.60
2022-10-13T09:12:56.201Z,20.77
2022-10-13T09:15:58.738Z,23.20
2022-10-13T09:19:28.037Z,23.27
2022-10-13T09:22:31.969Z,29.45
2022-10-13T09:25:43.003Z,22.53
2022-10-13T09:28:45.755Z,24.52
2022-10-13T09:31:48.619Z,23.30
2022-10-13T09:34:52.814Z,26.45
2022-10-13T09:38:05.555Z,27.75
2022-10-13T09:41:14.957Z,31.97
2022-10-13T09:44:37.955Z,22.42
2022-10-13T09:47:40.926Z,24.75
2022-10-13T09:50:49.013Z,26.05
2022-10-13T09:53:51.618Z,22.27
2022-10-13T09:57:03.069Z,23.30
2022-10-13T10:00:22.280Z,22.33
2022-10-13T10:03:29.836Z,23.20
2022-10-13T10:06:32.326Z,19.05
2022-10-13T10:09:44.549Z,24.27
2022-10-13T10:12:48.009Z,22.60
2022-10-13T10:15:55.973Z,23.05
2022-10-13T10:19:25.485Z,21.92
2022-10-13T10:22:53.044Z,18.48
2022-10-13T10:26:28.849Z,21.35
2022-10-13T10:29:43.340Z,25.87
2022-10-13T10:33:11.198Z,33.33
2022-10-13T10:36:20.786Z,27.00
2022-10-13T10:39:40.585Z,23.20
2022-10-13T10:43:18.799Z,21.33
2022-10-13T10:46:28.181Z,19.90
2022-10-13T10:49:34.743Z,18.17
2022-10-13T10:52:46.629Z,21.55
2022-10-13T10:55:55.508Z,23.12
2022-10-13T10:59:16.799Z,18.90
2022-10-13T11:02:42.127Z,19.97
2022-10-13T11:06:05.855Z,17.73
2022-10-13T11:09:11.550Z,22.33
2022-10-13T11:12:20.704Z,19.40
2022-10-13T11:15:28.815Z,17.70
2022-10-13T11:19:05.458Z,20.30
2022-10-13T11:22:12.942Z,20.58
2022-10-13T11:25:39.982Z,19.17
2022-10-13T11:28:43.131Z,20.75
2022-10-13T11:31:50.007Z,21.17
2022-10-13T11:35:12.959Z,19.97
2022-10-13T11:38:34.936Z,19.80
2022-10-13T11:41:55.359Z,21.23
2022-10-13T11:44:59.981Z,25.50
2022-10-13T11:48:21.630Z,17.98
2022-10-13T11:51:30.382Z,21.83
2022-10-13T11:54:42.358Z,23.58
2022-10-13T11:57:44.947Z,25.90
2022-10-13T12:00:50.667Z,22.37
2022-10-13T12:03:53.426Z,27.37
2022-10-13T12:06:59.652Z,20.77
2022-10-13T12:10:06.274Z,22.37
2022-10-13T12:13:21.287Z,19.52
2022-10-13T12:16:24.166Z,18.23
2022-10-13T12:19:28.916Z,23.42
2022-10-13T12:22:31.824Z,19.40
2022-10-13T12:25:34.366Z,20.83
2022-10-13T12:28:48.137Z,20.02
2022-10-13T12:31:51.098Z,19.40
2022-10-13T12:34:54.020Z,18.10
2022-10-13T12:37:57.487Z,19.47
2022-10-13T12:41:00.347Z,18.25
2022-10-13T12:44:06.612Z,17.92
2022-10-13T12:47:49.345Z,20.48
2022-10-13T12:50:51.900Z,18.37
2022-10-13T12:53:54.915Z,20.13
2022-10-13T12:56:59.658Z,17.12
2022-10-13T13:00:05.898Z,18.65
2022-10-13T13:03:22.999Z,18.40
2022-10-13T13:06:30.697Z,16.98
2022-10-13T13:09:34.889Z,19.93
2022-10-13T13:12:38.078Z,16.62
2022-10-13T13:15:44.870Z,16.92
2022-10-13T13:18:49.514Z,18.85
2022-10-13T13:21:53.640Z,16.87
2022-10-13T13:24:56.473Z,19.83
2022-10-13T13:27:58.999Z,14.95
2022-10-13T13:31:01.988Z,16.08
2022-10-13T13:34:04.414Z,14.82
2022-10-13T13:37:12.529Z,19.90
2022-10-13T13:40:17.856Z,17.50
2022-10-13T13:43:20.580Z,17.52
2022-10-13T13:46:27.865Z,14.80
2022-10-13T13:49:30.737Z,15.18
2022-10-13T13:52:33.411Z,15.02
2022-10-13T13:55:36.446Z,13.97
2022-10-13T13:58:41.173Z,13.68
2022-10-13T14:01:44.251Z,13.05
2022-10-13T14:04:47.244Z,13.50
2022-10-13T14:07:50.559Z,14.43
2022-10-13T14:10:53.260Z,12.47
2022-10-13T14:13:58.124Z,16.05
2022-10-13T14:17:04.923Z,16.08
2022-10-13T14:20:07.837Z,16.80
2022-10-13T14:23:13.329Z,15.57
2022-10-13T14:26:15.968Z,14.57
2022-10-13T14:29:18.894Z,15.07
2022-10-13T14:32:21.629Z,13.50
2022-10-13T14:35:24.649Z,13.25
2022-10-13T14:38:27.409Z,15.20
2022-10-13T14:41:30.226Z,16.20
2022-10-13T14:44:32.633Z,11.50
2022-10-13T14:47:35.419Z,13.18
2022-10-13T14:50:38.188Z,18.85
2022-10-13T14:53:43.142Z,17.00
2022-10-13T14:56:45.756Z,14.57
2022-10-13T14:59:48.745Z,15.70
2022-10-13T15:02:51.277Z,14.52
2022-10-13T15:05:54.445Z,15.10
2022-10-13T15:08:58.904Z,16.35
2022-10-13T15:12:01.811Z,15.00
2022-10-13T15:15:04.591Z,13.73
2022-10-13T15:18:07.378Z,20.73
2022-10-13T15:21:09.850Z,26.33
2022-10-13T15:24:12.753Z,21.60
2022-10-13T15:27:17.853Z,22.23
2022-10-13T15:30:20.587Z,24.20
2022-10-13T15:33:23.122Z,25.05
2022-10-13T15:36:26.089Z,37.30
2022-10-13T15:39:28.551Z,20.92
2022-10-13T15:42:31.337Z,28.00
2022-10-13T15:45:34.239Z,23.38
2022-10-13T15:48:36.998Z,66.80
2022-10-13T15:51:39.894Z,53.33
2022-10-13T15:54:42.735Z,51.92
2022-10-13T15:57:45.585Z,38.77
2022-10-13T16:00:48.389Z,38.72
2022-10-13T16:03:55.617Z,41.25
2022-10-13T16:06:58.765Z,30.98
2022-10-13T16:10:01.798Z,18.40
2022-10-13T16:13:04.349Z,30.23
2022-10-13T16:16:08.093Z,31.30
2022-10-13T16:19:10.585Z,26.40
2022-10-13T16:22:14.064Z,28.00
2022-10-13T16:25:16.852Z,35.92
2022-10-13T16:28:19.715Z,59.93
2022-10-13T16:31:22.539Z,42.00
2022-10-13T16:34:25.391Z,26.65
2022-10-13T16:37:27.871Z,34.95
2022-10-13T16:40:31.115Z,31.17
2022-10-13T16:43:34.326Z,28.60
2022-10-13T16:46:37.168Z,29.95
2022-10-13T16:49:39.676Z,27.10
2022-10-13T16:52:43.615Z,34.85
2022-10-13T16:55:46.209Z,43.90
2022-10-13T16:58:53.929Z,33.13
2022-10-13T17:01:57.941Z,30.98
2022-10-13T17:05:00.733Z,36.22
2022-10-13T17:08:03.209Z,36.40
2022-10-13T17:11:06.405Z,39.55
2022-10-13T17:14:10.991Z,48.73
2022-10-13T17:17:13.721Z,42.20
2022-10-13T17:20:16.175Z,47.88
2022-10-13T17:23:19.898Z,48.67
2022-10-13T17:26:22.538Z,33.13
2022-10-13T17:29:25.344Z,45.13
2022-10-13T17:32:29.100Z,47.60
2022-10-13T17:35:31.991Z,45.45
2022-10-13T17:38:34.874Z,38.92
2022-10-13T17:41:37.636Z,40.12
2022-10-13T17:44:40.321Z,39.63
2022-10-13T17:47:50.655Z,37.83
2022-10-13T17:50:53.137Z,42.75
2022-10-13T17:53:59.040Z,47.88
2022-10-13T17:57:01.656Z,44.05
2022-10-13T18:00:05.784Z,40.37
2022-10-13T18:03:14.737Z,48.78
2022-10-13T18:06:18.065Z,49.47
2022-10-13T18:09:23.612Z,48.30
2022-10-13T18:12:26.353Z,62.30
2022-10-13T18:15:28.801Z,48.13
2022-10-13T18:18:31.742Z,53.08
2022-10-13T18:21:34.221Z,39.95
2022-10-13T18:24:36.990Z,36.53
2022-10-13T18:27:39.563Z,35.35
2022-10-13T18:30:42.322Z,57.77
2022-10-13T18:33:45.229Z,62.65
2022-10-13T18:36:51.252Z,40.10
2022-10-13T18:39:53.758Z,48.92
2022-10-13T18:42:56.746Z,45.05
2022-10-13T18:46:00.304Z,45.40
2022-10-13T18:49:04.291Z,45.88
2022-10-13T18:52:06.797Z,41.40
2022-10-13T18:55:12.069Z,35.60
2022-10-13T18:58:14.764Z,49.95
2022-10-13T19:01:22.040Z,43.77
2022-10-13T19:04:26.235Z,45.25
2022-10-13T19:07:29.805Z,62.15
2022-10-13T19:10:33.324Z,49.28
2022-10-13T19:13:36.027Z,46.15
2022-10-13T19:16:40.909Z,44.30
2022-10-13T19:19:43.818Z,40.53
2022-10-13T19:22:46.325Z,43.53
2022-10-13T19:25:50.794Z,38.47
2022-10-13T19:28:58.952Z,33.70
2022-10-13T19:32:01.949Z,35.87
2022-10-13T19:35:04.481Z,37.58
2022-10-13T19:38:07.216Z,38.75
2022-10-13T19:41:09.950Z,37.88
2022-10-13T19:44:13.196Z,35.95
2022-10-13T19:47:15.694Z,39.53
2022-10-13T19:50:18.715Z,43.30
2022-10-13T19:53:21.237Z,43.00
2022-10-13T19:56:27.097Z,41.58
2022-10-13T19:59:29.589Z,38.88
2022-10-13T20:02:32.358Z,43.10
2022-10-13T20:05:38.072Z,42.97
2022-10-13T20:08:40.530Z,42.00
2022-10-13T20:11:49.674Z,38.22
2022-10-13T20:14:52.140Z,40.78
2022-10-13T20:17:54.882Z,36.97
2022-10-13T20:21:01.820Z,41.90
2022-10-13T20:24:04.676Z,39.67
2022-10-13T20:27:07.152Z,41.58
2022-10-13T20:30:10.916Z,45.08
2022-10-13T20:33:13.484Z,43.90
2022-10-13T20:36:17.491Z,40.70
2022-10-13T20:39:19.956Z,45.20
2022-10-13T20:42:22.994Z,44.55
2022-10-13T20:45:25.821Z,46.47
2022-10-13T20:48:57.772Z,41.00
2022-10-13T20:51:55.954Z,43.15
2022-10-13T20:54:58.707Z,42.90
2022-10-13T20:58:01.546Z,39.88
2022-10-13T21:01:04.799Z,39.83
2022-10-13T21:04:09.266Z,39.83
2022-10-13T21:07:11.994Z,42.92
2022-10-13T21:10:14.501Z,41.60
2022-10-13T21:13:17.323Z,45.67
2022-10-13T21:16:27.223Z,43.38
2022-10-13T21:19:30.194Z,41.83
2022-10-13T21:22:32.638Z,38.28
2022-10-13T21:25:35.780Z,39.17
2022-10-13T21:28:39.063Z,42.45
2022-10-13T21:31:42.131Z,34.55
2022-10-13T21:34:44.658Z,38.20
2022-10-13T21:37:47.480Z,36.45
2022-10-13T21:40:53.809Z,39.17
2022-10-13T21:43:57.216Z,35.20
2022-10-13T21:46:59.690Z,35.70
2022-10-13T21:50:04.532Z,32.47
2022-10-13T21:53:07.177Z,38.03
2022-10-13T21:56:11.816Z,33.17
2022-10-13T21:59:14.391Z,33.17
2022-10-13T22:02:17.378Z,33.30
2022-10-13T22:05:20.234Z,35.10
2022-10-13T22:08:37.518Z,37.90
2022-10-13T22:11:44.316Z,35.17
2022-10-13T22:14:46.893Z,35.30
2022-10-13T22:17:49.657Z,36.63
2022-10-13T22:20:52.119Z,32.03
2022-10-13T22:24:00.053Z,36.70
2022-10-13T22:27:02.476Z,35.55
2022-10-13T22:30:05.808Z,33.28
2022-10-13T22:33:08.289Z,34.17
2022-10-13T22:36:14.459Z,29.83
2022-10-13T22:39:17.994Z,30.42
2022-10-13T22:42:21.391Z,34.17
2022-10-13T22:45:23.984Z,31.35
2022-10-13T22:48:26.739Z,30.02
2022-10-13T22:51:30.975Z,37.97
2022-10-13T22:54:33.742Z,34.85
2022-10-13T22:57:36.191Z,29.70
2022-10-13T23:00:39.564Z,32.65
2022-10-13T23:03:44.173Z,28.27
2022-10-13T23:06:46.998Z,34.63
2022-10-13T23:09:50.283Z,26.70
2022-10-13T23:12:52.980Z,30.25
2022-10-13T23:16:04.620Z,30.02
2022-10-13T23:19:12.872Z,33.10
2022-10-13T23:22:16.927Z,34.53
2022-10-13T23:25:20.503Z,29.48
2022-10-13T23:28:22.955Z,31.77
2022-10-13T23:31:27.168Z,30.62
2022-10-13T23:34:29.704Z,28.38
2022-10-13T23:37:32.542Z,30.17
2022-10-13T23:40:35.982Z,27.95
2022-10-13T23:43:38.912Z,30.67
2022-10-13T23:46:41.400Z,32.70
2022-10-13T23:49:45.904Z,34.53
2022-10-13T23:52:48.353Z,31.93
2022-10-13T23:55:52.156Z,30.35
2022-10-13T23:59:01.303Z,29.70
